createdAt,value
2018-05-21T00:00:43.428Z,100988.27
2018-05-21T00:03:10.934Z,100984.25
2018-05-21T00:05:38.391Z,100980.98
2018-05-21T00:08:05.837Z,100974.37
2018-05-21T00:10:33.253Z,100978.09
2018-05-21T00:13:00.664Z,100978.23
2018-05-21T00:15:28.100Z,100971.06
2018-05-21T00:17:55.506Z,100972.63
2018-05-21T00:20:22.985Z,100970.80
2018-05-21T00:22:50.413Z,100970.41
2018-05-21T00:25:17.860Z,100967.61
2018-05-21T00:27:45.301Z,100966.09
2018-05-21T00:30:12.736Z,100968.59
2018-05-21T00:32:40.145Z,100967.38
2018-05-21T00:35:07.596Z,100978.16
2018-05-21T00:37:35.032Z,100969.23
2018-05-21T00:40:02.445Z,100966.95
2018-05-21T00:42:29.866Z,100968.42
2018-05-21T00:44:57.428Z,100975.78
2018-05-21T00:47:24.841Z,100970.08
2018-05-21T00:49:52.247Z,100966.59
2018-05-21T00:52:19.665Z,100961.25
2018-05-21T00:54:59.005Z,100962.56
2018-05-21T00:57:26.419Z,100962.63
2018-05-21T00:59:53.832Z,100963.09
2018-05-21T01:02:21.241Z,100962.30
2018-05-21T01:04:48.656Z,100959.75
2018-05-21T01:07:16.089Z,100960.52
2018-05-21T01:09:43.520Z,100957.88
2018-05-21T01:12:10.920Z,100956.86
2018-05-21T01:14:38.538Z,100958.30
2018-05-21T01:17:05.933Z,100963.91
2018-05-21T01:19:33.382Z,100964.45
2018-05-21T01:22:00.804Z,100960.02
2018-05-21T01:24:28.226Z,100960.92
2018-05-21T01:26:55.665Z,100960.31
2018-05-21T01:29:23.108Z,100962.44
2018-05-21T01:31:50.516Z,100966.54
2018-05-21T01:34:17.943Z,100964.11
2018-05-21T01:36:45.372Z,100964.31
2018-05-21T01:39:12.780Z,100953.83
2018-05-21T01:41:40.360Z,100959.64
2018-05-21T01:44:07.776Z,100949.69
2018-05-21T01:46:35.195Z,100956.59
2018-05-21T01:49:02.618Z,100963.09
2018-05-21T01:51:30.046Z,100956.77
2018-05-21T01:53:57.452Z,100954.49
2018-05-21T01:56:24.887Z,100956.66
2018-05-21T01:58:52.288Z,100948.69
2018-05-21T02:01:19.721Z,100949.83
2018-05-21T02:03:47.121Z,100950.64
2018-05-21T02:06:14.539Z,100945.45
2018-05-21T02:08:41.968Z,100947.77
2018-05-21T02:11:09.340Z,100936.27
2018-05-21T02:13:36.772Z,100937.36
2018-05-21T02:16:04.176Z,100934.12
2018-05-21T02:18:31.594Z,100939.23
2018-05-21T02:20:59.011Z,100935.70
2018-05-21T02:23:26.764Z,100934.64
2018-05-21T02:25:54.179Z,100940.05
2018-05-21T02:28:21.602Z,100930.95
2018-05-21T02:30:49.012Z,100931.72
2018-05-21T02:33:16.427Z,100930.62
2018-05-21T02:35:43.842Z,100929.70
2018-05-21T02:38:11.241Z,100934.24
2018-05-21T02:40:38.667Z,100932.13
2018-05-21T02:43:06.091Z,100934.19
2018-05-21T02:45:35.450Z,100925.95
2018-05-21T02:48:02.882Z,100922.53
2018-05-21T02:50:30.279Z,100919.80
2018-05-21T02:52:57.724Z,100914.56
2018-05-21T02:55:25.149Z,100920.20
2018-05-21T02:57:52.565Z,100910.80
2018-05-21T03:00:19.988Z,100909.13
2018-05-21T03:02:47.404Z,100912.81
2018-05-21T03:05:14.974Z,100904.16
2018-05-21T03:07:42.389Z,100905.13
2018-05-21T03:10:09.820Z,100918.47
2018-05-21T03:12:37.229Z,100913.36
2018-05-21T03:15:04.658Z,100910.59
2018-05-21T03:17:32.065Z,100915.66
2018-05-21T03:19:59.509Z,100921.05
2018-05-21T03:22:26.921Z,100913.38
2018-05-21T03:24:54.327Z,100911.78
2018-05-21T03:27:21.756Z,100920.39
2018-05-21T03:29:49.218Z,100917.02
2018-05-21T03:32:16.636Z,100910.03
2018-05-21T03:34:44.040Z,100913.96
2018-05-21T03:37:11.463Z,100906.82
2018-05-21T03:39:38.891Z,100910.83
2018-05-21T03:42:06.357Z,100906.97
2018-05-21T03:44:33.752Z,100914.89
2018-05-21T03:47:01.160Z,100908.92
2018-05-21T03:49:28.600Z,100904.59
2018-05-21T03:51:56.000Z,100905.70
2018-05-21T03:54:23.583Z,100904.29
2018-05-21T03:56:50.990Z,100906.94
2018-05-21T03:59:30.278Z,100905.20
2018-05-21T04:02:09.353Z,100905.41
2018-05-21T04:04:36.784Z,100903.69
2018-05-21T04:07:04.198Z,100898.63
2018-05-21T04:09:31.615Z,100899.40
2018-05-21T04:11:59.114Z,100902.57
2018-05-21T04:14:26.460Z,100896.58
2018-05-21T04:16:53.874Z,100900.40
2018-05-21T04:19:21.283Z,100901.63
2018-05-21T04:21:48.696Z,100902.84
2018-05-21T04:24:16.123Z,100901.46
2018-05-21T04:26:43.524Z,100905.08
2018-05-21T04:29:10.952Z,100903.56
2018-05-21T04:31:38.353Z,100900.30
2018-05-21T04:34:05.771Z,100894.37
2018-05-21T04:36:33.293Z,100889.17
2018-05-21T04:39:00.638Z,100888.93
2018-05-21T04:41:28.047Z,100882.58
2018-05-21T04:43:55.476Z,100878.91
2018-05-21T04:46:22.881Z,100874.39
2018-05-21T04:48:50.410Z,100879.47
2018-05-21T04:51:17.812Z,100876.35
2018-05-21T04:53:45.233Z,100878.72
2018-05-21T04:56:12.656Z,100869.79
2018-05-21T04:58:40.059Z,100869.47
2018-05-21T05:01:07.489Z,100869.30
2018-05-21T05:03:34.888Z,100865.14
2018-05-21T05:06:02.313Z,100865.33
2018-05-21T05:08:29.720Z,100857.09
2018-05-21T05:10:57.153Z,100860.06
2018-05-21T05:13:24.570Z,100865.83
2018-05-21T05:15:52.013Z,100861.31
2018-05-21T05:18:19.441Z,100855.73
2018-05-21T05:20:46.866Z,100861.75
2018-05-21T05:23:14.632Z,100862.25
2018-05-21T05:25:42.044Z,100851.89
2018-05-21T05:28:09.466Z,100847.23
2018-05-21T05:30:36.880Z,100849.84
2018-05-21T05:33:04.326Z,100856.68
2018-05-21T05:35:31.735Z,100852.11
2018-05-21T05:37:59.164Z,100849.77
2018-05-21T05:40:26.608Z,100847.73
2018-05-21T05:42:54.036Z,100843.81
2018-05-21T05:45:21.452Z,100841.91
2018-05-21T05:47:48.921Z,100840.66
2018-05-21T05:50:16.336Z,100843.34
2018-05-21T05:52:43.747Z,100841.64
2018-05-21T05:55:11.164Z,100851.95
2018-05-21T05:57:38.586Z,100844.50
2018-05-21T06:00:06.358Z,100847.28
2018-05-21T06:02:33.784Z,100851.88
2018-05-21T06:05:01.197Z,100844.30
2018-05-21T06:07:28.628Z,100839.63
2018-05-21T06:09:56.032Z,100843.89
2018-05-21T06:12:23.482Z,100841.93
2018-05-21T06:14:50.952Z,100838.16
2018-05-21T06:17:18.375Z,100831.89
2018-05-21T06:19:45.783Z,100826.17
2018-05-21T06:22:13.203Z,100824.45
2018-05-21T06:24:40.628Z,100824.28
2018-05-21T06:27:08.104Z,100828.23
2018-05-21T06:29:35.528Z,100817.97
2018-05-21T06:32:02.948Z,100828.64
2018-05-21T06:34:30.434Z,100823.98
2018-05-21T06:36:57.781Z,100830.45
2018-05-21T06:39:25.212Z,100825.23
2018-05-21T06:41:52.610Z,100819.16
2018-05-21T06:44:20.095Z,100821.75
2018-05-21T06:46:47.507Z,100827.26
2018-05-21T06:49:15.110Z,100816.14
2018-05-21T06:51:42.527Z,100817.86
2018-05-21T06:54:10.928Z,100816.37
2018-05-21T06:56:38.361Z,100809.19
2018-05-21T06:59:05.802Z,100814.00
2018-05-21T07:01:33.217Z,100816.66
2018-05-21T07:04:00.636Z,100814.72
2018-05-21T07:06:28.282Z,100819.67
2018-05-21T07:08:55.702Z,100813.72
2018-05-21T07:11:23.095Z,100812.67
2018-05-21T07:13:50.524Z,100809.10
2018-05-21T07:16:17.968Z,100816.24
2018-05-21T07:18:45.371Z,100800.69
2018-05-21T07:21:12.783Z,100799.80
2018-05-21T07:23:40.208Z,100804.55
2018-05-21T07:26:07.641Z,100816.87
2018-05-21T07:28:35.056Z,100804.13
2018-05-21T07:33:53.257Z,100794.45
2018-05-21T07:36:20.748Z,100783.03
2018-05-21T07:41:50.933Z,100780.53
2018-05-21T07:44:18.349Z,100780.73
2018-05-21T07:46:45.764Z,100777.52
2018-05-21T07:49:13.516Z,100770.17
2018-05-21T07:51:40.979Z,100784.45
2018-05-21T07:54:08.336Z,100771.31
2018-05-21T07:56:35.764Z,100763.95
2018-05-21T07:59:03.177Z,100766.05
2018-05-21T08:01:30.601Z,100765.21
2018-05-21T08:03:58.024Z,100764.71
2018-05-21T08:06:25.424Z,100765.78
2018-05-21T08:08:52.848Z,100758.44
2018-05-21T08:11:20.418Z,100762.63
2018-05-21T08:13:47.827Z,100758.99
2018-05-21T08:16:15.237Z,100756.67
2018-05-21T08:18:42.669Z,100762.06
2018-05-21T08:21:10.075Z,100750.67
2018-05-21T08:23:37.833Z,100749.64
2018-05-21T08:26:05.420Z,100753.45
2018-05-21T08:28:32.824Z,100749.66
2018-05-21T08:31:00.262Z,100759.07
2018-05-21T08:33:27.664Z,100754.91
2018-05-21T08:35:55.347Z,100742.92
2018-05-21T08:38:22.751Z,100738.70
2018-05-21T08:40:50.165Z,100739.67
2018-05-21T08:43:17.604Z,100740.78
2018-05-21T08:45:44.995Z,100730.05
2018-05-21T08:48:12.417Z,100732.80
2018-05-21T08:50:39.828Z,100729.80
2018-05-21T08:53:07.253Z,100730.64
2018-05-21T08:55:34.666Z,100730.53
2018-05-21T08:58:02.097Z,100736.70
2018-05-21T09:00:29.568Z,100723.72
2018-05-21T09:02:56.926Z,100720.80
2018-05-21T09:05:24.361Z,100710.97
2018-05-21T09:07:51.775Z,100712.50
2018-05-21T09:10:19.191Z,100713.53
2018-05-21T09:12:46.621Z,100707.27
2018-05-21T09:15:14.031Z,100709.00
2018-05-21T09:17:41.458Z,100696.89
2018-05-21T09:20:08.891Z,100701.05
2018-05-21T09:22:36.360Z,100705.61
2018-05-21T09:25:04.156Z,100693.41
2018-05-21T09:27:31.565Z,100694.56
2018-05-21T09:29:58.963Z,100688.28
2018-05-21T09:32:26.482Z,100687.93
2018-05-21T09:34:53.829Z,100700.36
2018-05-21T09:37:21.266Z,100682.78
2018-05-21T09:39:48.675Z,100681.03
2018-05-21T09:42:16.118Z,100683.23
2018-05-21T09:44:43.530Z,100688.00
2018-05-21T09:47:10.948Z,100687.67
2018-05-21T09:49:38.356Z,100679.47
2018-05-21T09:52:05.867Z,100664.17
2018-05-21T09:54:33.284Z,100673.71
2018-05-21T09:57:00.705Z,100675.77
2018-05-21T09:59:28.135Z,100666.57
2018-05-21T10:01:55.536Z,100661.20
2018-05-21T10:04:22.965Z,100655.89
2018-05-21T10:06:50.402Z,100652.27
2018-05-21T10:09:17.816Z,100655.31
2018-05-21T10:11:45.294Z,100663.44
2018-05-21T10:14:12.709Z,100656.20
2018-05-21T10:16:40.131Z,100666.64
2018-05-21T10:19:07.608Z,100651.69
2018-05-21T10:21:35.038Z,100650.92
2018-05-21T10:24:02.479Z,100655.37
2018-05-21T10:26:29.898Z,100643.70
2018-05-21T10:28:57.368Z,100635.50
2018-05-21T10:31:24.796Z,100641.80
2018-05-21T10:33:52.276Z,100641.28
2018-05-21T10:36:19.793Z,100640.02
2018-05-21T10:38:47.203Z,100620.53
2018-05-21T10:41:15.160Z,100640.82
2018-05-21T10:43:42.669Z,100620.84
2018-05-21T10:46:10.032Z,100622.16
2018-05-21T10:48:37.448Z,100619.73
2018-05-21T10:51:04.863Z,100615.45
2018-05-21T10:53:32.313Z,100616.09
2018-05-21T10:55:59.744Z,100608.36
2018-05-21T10:58:27.177Z,100625.66
2018-05-21T11:00:54.620Z,100621.55
2018-05-21T11:03:22.039Z,100610.02
2018-05-21T11:05:49.454Z,100609.03
2018-05-21T11:08:16.898Z,100595.22
2018-05-21T11:10:44.314Z,100584.30
2018-05-21T11:13:11.752Z,100587.95
2018-05-21T11:15:39.171Z,100584.37
2018-05-21T11:18:06.634Z,100581.64
2018-05-21T11:20:34.056Z,100575.74
2018-05-21T11:23:01.481Z,100573.47
2018-05-21T11:25:28.912Z,100566.41
2018-05-21T11:27:56.325Z,100578.20
2018-05-21T11:30:23.762Z,100565.53
2018-05-21T11:32:51.195Z,100555.81
2018-05-21T11:35:18.646Z,100571.01
2018-05-21T11:37:46.057Z,100551.38
2018-05-21T11:40:13.469Z,100555.52
2018-05-21T11:42:40.917Z,100557.12
2018-05-21T11:45:08.332Z,100542.64
2018-05-21T11:47:35.882Z,100538.77
2018-05-21T11:50:03.299Z,100555.97
2018-05-21T11:52:30.787Z,100536.27
2018-05-21T11:54:58.176Z,100537.36
2018-05-21T11:57:25.620Z,100517.35
2018-05-21T11:59:53.033Z,100513.89
2018-05-21T12:02:20.465Z,100523.55
2018-05-21T12:04:47.888Z,100516.41
2018-05-21T12:07:15.329Z,100516.64
2018-05-21T12:09:43.173Z,100514.73
2018-05-21T12:12:11.784Z,100508.78
2018-05-21T12:14:39.377Z,100499.41
2018-05-21T12:17:06.830Z,100496.47
2018-05-21T12:19:34.252Z,100499.39
2018-05-21T12:22:01.687Z,100495.97
2018-05-21T12:24:29.140Z,100497.34
2018-05-21T12:26:56.572Z,100500.77
2018-05-21T12:29:24.003Z,100499.25
2018-05-21T12:31:51.436Z,100495.48
2018-05-21T12:34:18.892Z,100496.65
2018-05-21T12:36:46.329Z,100485.80
2018-05-21T12:39:13.768Z,100494.94
2018-05-21T12:41:41.212Z,100479.63
2018-05-21T12:44:08.646Z,100481.31
2018-05-21T12:46:36.088Z,100480.90
2018-05-21T12:49:03.524Z,100490.70
2018-05-21T12:51:30.959Z,100470.91
2018-05-21T12:53:58.371Z,100460.34
2018-05-21T12:56:26.569Z,100477.66
2018-05-21T12:58:53.990Z,100473.73
2018-05-21T13:01:21.388Z,100470.09
2018-05-21T13:03:48.836Z,100466.26
2018-05-21T13:06:16.240Z,100467.05
2018-05-21T13:08:43.673Z,100459.55
2018-05-21T13:11:11.094Z,100462.98
2018-05-21T13:13:38.531Z,100465.37
2018-05-21T13:16:05.940Z,100451.00
2018-05-21T13:18:33.361Z,100449.50
2018-05-21T13:21:00.800Z,100452.66
2018-05-21T13:23:28.229Z,100455.20
2018-05-21T13:25:55.673Z,100436.91
2018-05-21T13:28:23.077Z,100438.34
2018-05-21T13:30:50.681Z,100442.67
2018-05-21T13:33:18.101Z,100441.99
2018-05-21T13:35:45.540Z,100454.09
2018-05-21T13:38:12.967Z,100418.02
2018-05-21T13:40:40.392Z,100427.94
2018-05-21T13:43:08.186Z,100431.64
2018-05-21T13:45:35.532Z,100418.02
2018-05-21T13:48:02.941Z,100416.87
2018-05-21T13:50:30.379Z,100424.59
2018-05-21T13:52:57.778Z,100419.34
2018-05-21T13:55:25.237Z,100409.77
2018-05-21T13:57:52.640Z,100425.43
2018-05-21T14:00:20.076Z,100407.63
2018-05-21T14:02:47.506Z,100405.09
2018-05-21T14:05:14.927Z,100405.98
2018-05-21T14:07:42.368Z,100398.92
2018-05-21T14:10:09.783Z,100407.70
2018-05-21T14:12:37.528Z,100404.98
2018-05-21T14:15:04.860Z,100393.72
2018-05-21T14:17:32.267Z,100387.64
2018-05-21T14:19:59.714Z,100390.80
2018-05-21T14:22:27.136Z,100384.83
2018-05-21T14:24:54.559Z,100388.22
2018-05-21T14:27:21.975Z,100383.16
2018-05-21T14:29:49.486Z,100380.72
2018-05-21T14:32:16.861Z,100365.50
2018-05-21T14:34:44.295Z,100371.88
2018-05-21T14:37:11.725Z,100365.09
2018-05-21T14:39:39.137Z,100358.80
2018-05-21T14:42:06.569Z,100356.77
2018-05-21T14:44:33.987Z,100354.23
2018-05-21T14:47:01.413Z,100346.57
2018-05-21T14:49:28.835Z,100345.31
2018-05-21T14:51:56.256Z,100346.06
2018-05-21T14:54:23.693Z,100334.32
2018-05-21T14:56:51.117Z,100337.61
2018-05-21T14:59:18.561Z,100327.66
2018-05-21T15:01:46.005Z,100325.24
2018-05-21T15:04:13.411Z,100326.00
2018-05-21T15:06:40.857Z,100329.80
2018-05-21T15:09:08.280Z,100319.56
2018-05-21T15:11:35.708Z,100322.49
2018-05-21T15:14:03.918Z,100311.20
2018-05-21T15:16:31.328Z,100314.25
2018-05-21T15:18:58.784Z,100305.97
2018-05-21T15:21:26.196Z,100311.76
2018-05-21T15:23:53.616Z,100312.33
2018-05-21T15:26:21.031Z,100308.50
2018-05-21T15:28:48.743Z,100307.41
2018-05-21T15:31:16.156Z,100312.23
2018-05-21T15:33:43.572Z,100308.94
2018-05-21T15:36:11.336Z,100304.56
2018-05-21T15:38:38.741Z,100306.19
2018-05-21T15:41:06.314Z,100315.52
2018-05-21T15:43:33.714Z,100316.45
2018-05-21T15:46:01.139Z,100296.31
2018-05-21T15:48:28.552Z,100296.42
2018-05-21T15:50:55.967Z,100311.82
2018-05-21T15:53:23.399Z,100286.95
2018-05-21T15:55:50.831Z,100285.53
2018-05-21T15:58:18.239Z,100291.69
2018-05-21T16:00:45.677Z,100285.36
2018-05-21T16:03:13.119Z,100291.36
2018-05-21T16:05:40.647Z,100292.41
2018-05-21T16:08:08.060Z,100281.92
2018-05-21T16:10:35.512Z,100275.16
2018-05-21T16:13:02.962Z,100284.13
2018-05-21T16:15:30.363Z,100277.36
2018-05-21T16:17:57.936Z,100269.34
2018-05-21T16:20:25.199Z,100282.72
2018-05-21T16:22:52.615Z,100254.34
2018-05-21T16:25:20.077Z,100267.78
2018-05-21T16:27:47.512Z,100271.11
2018-05-21T16:30:14.969Z,100269.30
2018-05-21T16:32:42.340Z,100267.05
2018-05-21T16:35:09.772Z,100276.96
2018-05-21T16:37:37.185Z,100262.75
2018-05-21T16:40:04.991Z,100267.89
2018-05-21T16:42:32.421Z,100267.45
2018-05-21T16:44:59.828Z,100274.82
2018-05-21T16:47:27.311Z,100263.66
2018-05-21T16:49:54.726Z,100260.39
2018-05-21T16:52:23.041Z,100266.53
2018-05-21T16:54:50.484Z,100266.25
2018-05-21T16:57:17.980Z,100264.73
2018-05-21T16:59:45.433Z,100259.81
2018-05-21T17:02:12.930Z,100268.05
2018-05-21T17:04:40.605Z,100258.97
2018-05-21T17:07:08.203Z,100266.34
2018-05-21T17:09:35.706Z,100266.91
2018-05-21T17:12:03.148Z,100259.67
2018-05-21T17:14:30.632Z,100257.61
2018-05-21T17:16:58.084Z,100265.06
2018-05-21T17:19:25.524Z,100257.85
2018-05-21T17:21:52.948Z,100258.19
2018-05-21T17:24:20.413Z,100255.38
2018-05-21T17:26:47.833Z,100252.95
2018-05-21T17:29:15.284Z,100254.82
2018-05-21T17:31:42.701Z,100258.02
2018-05-21T17:34:10.176Z,100257.11
2018-05-21T17:36:42.181Z,100253.70
2018-05-21T17:39:09.681Z,100253.94
2018-05-21T17:41:37.122Z,100259.06
2018-05-21T17:44:04.564Z,100259.61
2018-05-21T17:46:31.984Z,100255.95
2018-05-21T17:48:59.418Z,100256.32
2018-05-21T17:51:26.891Z,100261.49
2018-05-21T17:53:54.351Z,100258.16
2018-05-21T17:56:21.763Z,100259.05
2018-05-21T17:58:49.310Z,100268.80
2018-05-21T18:01:16.739Z,100260.66
2018-05-21T18:03:44.249Z,100256.31
2018-05-21T18:06:11.977Z,100258.52
2018-05-21T18:08:39.401Z,100256.77
2018-05-21T18:11:06.925Z,100255.55
2018-05-21T18:13:34.360Z,100255.25
2018-05-21T18:16:01.785Z,100255.55
2018-05-21T18:18:29.245Z,100259.31
2018-05-21T18:20:56.675Z,100257.73
2018-05-21T18:23:24.144Z,100261.09
2018-05-21T18:25:51.904Z,100253.14
2018-05-21T18:28:19.410Z,100264.53
2018-05-21T18:30:46.836Z,100269.02
2018-05-21T18:33:14.275Z,100257.16
2018-05-21T18:35:41.822Z,100259.48
2018-05-21T18:38:09.258Z,100254.88
2018-05-21T18:40:36.667Z,100251.47
2018-05-21T18:43:04.091Z,100258.74
2018-05-21T18:45:31.512Z,100258.21
2018-05-21T18:47:58.949Z,100249.44
2018-05-21T18:50:26.361Z,100254.42
2018-05-21T18:52:53.819Z,100254.20
2018-05-21T18:55:21.243Z,100251.14
2018-05-21T18:57:48.671Z,100256.94
2018-05-21T19:00:16.089Z,100258.30
2018-05-21T19:02:43.809Z,100253.66
2018-05-21T19:05:11.235Z,100268.20
2018-05-21T19:07:38.641Z,100257.96
2018-05-21T19:10:06.118Z,100265.47
2018-05-21T19:12:33.547Z,100260.03
2018-05-21T19:15:01.023Z,100266.21
2018-05-21T19:17:28.456Z,100266.67
2018-05-21T19:19:55.890Z,100259.83
2018-05-21T19:22:23.342Z,100266.64
2018-05-21T19:24:50.778Z,100272.59
2018-05-21T19:27:18.184Z,100274.97
2018-05-21T19:29:45.600Z,100279.24
2018-05-21T19:32:13.012Z,100273.70
2018-05-21T19:34:40.432Z,100279.02
2018-05-21T19:37:07.980Z,100279.73
2018-05-21T19:39:35.387Z,100276.48
2018-05-21T19:42:02.814Z,100282.43
2018-05-21T19:44:30.216Z,100280.72
2018-05-21T19:46:57.638Z,100283.38
2018-05-21T19:49:25.153Z,100279.72
2018-05-21T19:51:52.643Z,100282.02
2018-05-21T19:54:20.077Z,100283.34
2018-05-21T19:56:47.520Z,100282.64
2018-05-21T19:59:14.975Z,100284.13
2018-05-21T20:01:42.389Z,100289.79
2018-05-21T20:04:09.808Z,100293.48
2018-05-21T20:06:37.236Z,100285.00
2018-05-21T20:09:05.465Z,100290.09
2018-05-21T20:11:33.173Z,100284.41
2018-05-21T20:14:00.576Z,100283.69
2018-05-21T20:16:27.979Z,100293.08
2018-05-21T20:18:55.415Z,100289.16
2018-05-21T20:21:22.827Z,100295.20
2018-05-21T20:23:50.261Z,100291.84
2018-05-21T20:26:17.662Z,100299.91
2018-05-21T20:28:45.114Z,100289.38
2018-05-21T20:31:12.541Z,100295.41
2018-05-21T20:33:39.970Z,100294.45
2018-05-21T20:36:07.380Z,100295.69
2018-05-21T20:38:34.796Z,100297.92
2018-05-21T20:41:02.226Z,100293.55
2018-05-21T20:43:29.650Z,100299.38
2018-05-21T20:45:57.094Z,100302.42
2018-05-21T20:48:24.525Z,100290.09
2018-05-21T20:50:51.935Z,100300.52
2018-05-21T20:53:19.365Z,100296.38
2018-05-21T20:55:46.770Z,100303.83
2018-05-21T20:58:14.332Z,100302.06
2018-05-21T21:00:41.745Z,100296.95
2018-05-21T21:03:09.149Z,100299.78
2018-05-21T21:05:36.572Z,100298.23
2018-05-21T21:08:04.000Z,100298.86
2018-05-21T21:10:31.490Z,100300.09
2018-05-21T21:12:58.831Z,100307.70
2018-05-21T21:15:26.246Z,100297.34
2018-05-21T21:17:53.663Z,100290.95
2018-05-21T21:20:21.081Z,100294.37
2018-05-21T21:22:48.505Z,100296.60
2018-05-21T21:25:15.912Z,100295.42
2018-05-21T21:27:43.320Z,100297.45
2018-05-21T21:30:10.740Z,100296.50
2018-05-21T21:32:38.497Z,100296.55
2018-05-21T21:35:05.871Z,100299.38
2018-05-21T21:37:33.281Z,100298.83
2018-05-21T21:40:00.703Z,100297.06
2018-05-21T21:42:28.114Z,100299.70
2018-05-21T21:44:55.658Z,100292.78
2018-05-21T21:47:23.144Z,100290.41
2018-05-21T21:49:50.654Z,100284.66
2018-05-21T21:52:18.084Z,100281.92
2018-05-21T21:54:45.499Z,100280.75
2018-05-21T21:57:12.935Z,100282.94
2018-05-21T21:59:40.351Z,100280.73
2018-05-21T22:02:07.788Z,100270.00
2018-05-21T22:04:35.226Z,100267.02
2018-05-21T22:07:02.652Z,100271.80
2018-05-21T22:09:30.125Z,100268.03
2018-05-21T22:11:57.537Z,100262.45
2018-05-21T22:14:24.983Z,100261.25
2018-05-21T22:16:52.442Z,100266.26
2018-05-21T22:19:19.857Z,100266.48
2018-05-21T22:21:47.283Z,100263.08
2018-05-21T22:24:14.698Z,100266.66
2018-05-21T22:26:42.125Z,100259.31
2018-05-21T22:29:09.541Z,100256.93
2018-05-21T22:31:37.012Z,100248.17
2018-05-21T22:34:04.439Z,100248.41
2018-05-21T22:36:31.850Z,100245.03
2018-05-21T22:38:59.276Z,100248.44
2018-05-21T22:41:26.684Z,100251.44
2018-05-21T22:43:54.122Z,100247.09
2018-05-21T22:46:21.532Z,100245.95
2018-05-21T22:48:48.937Z,100246.20
2018-05-21T22:51:16.363Z,100250.61
2018-05-21T22:53:43.775Z,100242.29
2018-05-21T22:56:11.200Z,100247.89
2018-05-21T22:58:38.731Z,100244.33
2018-05-21T23:01:06.165Z,100239.71
2018-05-21T23:03:33.603Z,100241.52
2018-05-21T23:06:01.016Z,100236.33
2018-05-21T23:08:28.446Z,100235.75
2018-05-21T23:10:55.860Z,100230.55
2018-05-21T23:13:23.692Z,100230.97
2018-05-21T23:15:51.103Z,100234.35
2018-05-21T23:18:18.516Z,100229.95
2018-05-21T23:20:45.951Z,100227.55
2018-05-21T23:23:13.379Z,100225.19
2018-05-21T23:25:40.827Z,100221.17
2018-05-21T23:28:08.252Z,100220.97
2018-05-21T23:30:35.667Z,100214.99
2018-05-21T23:33:03.100Z,100218.96
2018-05-21T23:35:30.528Z,100214.97
2018-05-21T23:37:57.944Z,100212.19
2018-05-21T23:40:25.357Z,100209.36
2018-05-21T23:42:52.788Z,100214.70
2018-05-21T23:45:20.204Z,100209.51
2018-05-21T23:47:47.628Z,100207.12
2018-05-21T23:50:15.066Z,100209.67
2018-05-21T23:52:42.540Z,100207.86
2018-05-21T23:55:09.959Z,100205.86
2018-05-21T23:57:37.400Z,100200.70
